sensor_id;sensor_type;location;lat;lon;timestamp;P1;durP1;ratioP1;P2;durP2;ratioP2
950;SDS011;462;48.758;9.256;2022-10-01T00:04:01;7.77;;;7.07;;
950;SDS011;462;48.758;9.256;2022-10-01T00:12:05;8.70;;;7.87;;
950;SDS011;462;48.758;9.256;2022-10-01T00:20:08;8.43;;;7.70;;
950;SDS011;462;48.758;9.256;2022-10-01T00:28:12;8.30;;;7.50;;
950;SDS011;462;48.758;9.256;2022-10-01T00:36:17;8.40;;;7.67;;
950;SDS011;462;48.758;9.256;2022-10-01T00:44:28;7.53;;;6.50;;
950;SDS011;462;48.758;9.256;2022-10-01T00:52:34;7.23;;;6.53;;
950;SDS011;462;48.758;9.256;2022-10-01T01:00:41;7.93;;;7.23;;
950;SDS011;462;48.758;9.256;2022-10-01T01:08:44;6.20;;;5.70;;
950;SDS011;462;48.758;9.256;2022-10-01T01:16:56;8.83;;;8.03;;
950;SDS011;462;48.758;9.256;2022-10-01T01:25:03;6.80;;;6.20;;
950;SDS011;462;48.758;9.256;2022-10-01T01:33:11;6.57;;;5.97;;
950;SDS011;462;48.758;9.256;2022-10-01T01:41:16;12.40;;;10.77;;
950;SDS011;462;48.758;9.256;2022-10-01T01:49:21;11.20;;;10.20;;
950;SDS011;462;48.758;9.256;2022-10-01T01:57:25;10.47;;;9.43;;
950;SDS011;462;48.758;9.256;2022-10-01T02:05:30;11.33;;;8.97;;
950;SDS011;462;48.758;9.256;2022-10-01T02:13:41;10.13;;;9.13;;
950;SDS011;462;48.758;9.256;2022-10-01T02:21:54;9.53;;;8.63;;
950;SDS011;462;48.758;9.256;2022-10-01T02:30:00;10.53;;;9.40;;
950;SDS011;462;48.758;9.256;2022-10-01T02:38:07;11.43;;;10.37;;
950;SDS011;462;48.758;9.256;2022-10-01T02:46:12;10.80;;;9.80;;
950;SDS011;462;48.758;9.256;2022-10-01T02:54:18;13.37;;;10.83;;
950;SDS011;462;48.758;9.256;2022-10-01T03:02:26;11.33;;;10.30;;
950;SDS011;462;48.758;9.256;2022-10-01T03:10:33;11.37;;;10.23;;
950;SDS011;462;48.758;9.256;2022-10-01T03:18:35;11.97;;;10.87;;
950;SDS011;462;48.758;9.256;2022-10-01T03:26:39;12.17;;;10.90;;
950;SDS011;462;48.758;9.256;2022-10-01T03:34:42;10.70;;;9.70;;
950;SDS011;462;48.758;9.256;2022-10-01T03:42:46;14.43;;;10.37;;
950;SDS011;462;48.758;9.256;2022-10-01T03:50:52;9.77;;;8.77;;
950;SDS011;462;48.758;9.256;2022-10-01T03:58:56;14.97;;;10.20;;
950;SDS011;462;48.758;9.256;2022-10-01T04:06:59;11.40;;;10.20;;
950;SDS011;462;48.758;9.256;2022-10-01T04:15:02;10.03;;;9.03;;
950;SDS011;462;48.758;9.256;2022-10-01T04:23:05;11.47;;;10.37;;
950;SDS011;462;48.758;9.256;2022-10-01T04:31:09;11.43;;;9.93;;
950;SDS011;462;48.758;9.256;2022-10-01T04:39:26;11.23;;;10.00;;
950;SDS011;462;48.758;9.256;2022-10-01T04:47:30;9.83;;;8.83;;
950;SDS011;462;48.758;9.256;2022-10-01T04:55:32;9.63;;;8.47;;
950;SDS011;462;48.758;9.256;2022-10-01T05:03:36;7.80;;;7.10;;
950;SDS011;462;48.758;9.256;2022-10-01T05:11:39;6.23;;;5.70;;
950;SDS011;462;48.758;9.256;2022-10-01T05:19:42;6.40;;;5.80;;
950;SDS011;462;48.758;9.256;2022-10-01T05:27:45;14.33;;;5.40;;
950;SDS011;462;48.758;9.256;2022-10-01T05:35:49;5.37;;;4.80;;
950;SDS011;462;48.758;9.256;2022-10-01T05:43:52;4.33;;;3.93;;
950;SDS011;462;48.758;9.256;2022-10-01T05:51:56;4.57;;;4.17;;
950;SDS011;462;48.758;9.256;2022-10-01T06:00:00;5.37;;;4.87;;
950;SDS011;462;48.758;9.256;2022-10-01T06:08:13;5.57;;;5.03;;
950;SDS011;462;48.758;9.256;2022-10-01T06:16:16;5.40;;;4.90;;
950;SDS011;462;48.758;9.256;2022-10-01T06:24:21;5.57;;;5.00;;
950;SDS011;462;48.758;9.256;2022-10-01T06:32:24;6.70;;;6.03;;
950;SDS011;462;48.758;9.256;2022-10-01T06:40:28;6.80;;;4.80;;
950;SDS011;462;48.758;9.256;2022-10-01T06:48:31;6.10;;;5.50;;
950;SDS011;462;48.758;9.256;2022-10-01T06:56:36;8.40;;;4.97;;
950;SDS011;462;48.758;9.256;2022-10-01T07:04:39;7.23;;;4.50;;
950;SDS011;462;48.758;9.256;2022-10-01T07:12:43;5.23;;;4.73;;
950;SDS011;462;48.758;9.256;2022-10-01T07:20:48;4.20;;;3.90;;
950;SDS011;462;48.758;9.256;2022-10-01T07:28:51;4.80;;;4.40;;
950;SDS011;462;48.758;9.256;2022-10-01T07:36:54;4.27;;;3.93;;
950;SDS011;462;48.758;9.256;2022-10-01T07:44:58;4.63;;;4.20;;
950;SDS011;462;48.758;9.256;2022-10-01T07:53:02;4.03;;;3.67;;
950;SDS011;462;48.758;9.256;2022-10-01T08:01:06;6.40;;;4.40;;
950;SDS011;462;48.758;9.256;2022-10-01T08:09:09;11.00;;;3.40;;
950;SDS011;462;48.758;9.256;2022-10-01T08:17:12;5.83;;;4.00;;
950;SDS011;462;48.758;9.256;2022-10-01T08:25:15;2.83;;;2.63;;
950;SDS011;462;48.758;9.256;2022-10-01T08:33:19;4.33;;;2.63;;
950;SDS011;462;48.758;9.256;2022-10-01T08:41:25;2.23;;;2.07;;
950;SDS011;462;48.758;9.256;2022-10-01T08:49:35;2.23;;;2.03;;
950;SDS011;462;48.758;9.256;2022-10-01T08:57:42;3.27;;;2.97;;
950;SDS011;462;48.758;9.256;2022-10-01T09:05:56;3.00;;;2.60;;
950;SDS011;462;48.758;9.256;2022-10-01T09:14:16;2.30;;;1.90;;
950;SDS011;462;48.758;9.256;2022-10-01T09:22:36;2.00;;;1.90;;
950;SDS011;462;48.758;9.256;2022-10-01T09:30:41;4.93;;;2.50;;
950;SDS011;462;48.758;9.256;2022-10-01T09:38:47;2.77;;;2.57;;
950;SDS011;462;48.758;9.256;2022-10-01T09:46:56;1.97;;;1.53;;
950;SDS011;462;48.758;9.256;2022-10-01T09:55:01;2.83;;;1.80;;
950;SDS011;462;48.758;9.256;2022-10-01T10:03:05;2.07;;;1.97;;
950;SDS011;462;48.758;9.256;2022-10-01T10:11:09;6.40;;;2.90;;
950;SDS011;462;48.758;9.256;2022-10-01T10:19:21;6.00;;;2.80;;
950;SDS011;462;48.758;9.256;2022-10-01T10:27:26;22.37;;;4.67;;
950;SDS011;462;48.758;9.256;2022-10-01T10:35:29;16.43;;;5.83;;
950;SDS011;462;48.758;9.256;2022-10-01T10:43:35;12.10;;;6.07;;
950;SDS011;462;48.758;9.256;2022-10-01T10:51:42;6.10;;;3.77;;
950;SDS011;462;48.758;9.256;2022-10-01T10:59:55;9.87;;;4.00;;
950;SDS011;462;48.758;9.256;2022-10-01T11:07:58;4.77;;;2.93;;
950;SDS011;462;48.758;9.256;2022-10-01T11:16:10;10.67;;;3.00;;
950;SDS011;462;48.758;9.256;2022-10-01T11:24:30;6.57;;;1.83;;
950;SDS011;462;48.758;9.256;2022-10-01T11:32:57;4.73;;;2.20;;
950;SDS011;462;48.758;9.256;2022-10-01T11:41:08;5.17;;;1.87;;
950;SDS011;462;48.758;9.256;2022-10-01T11:49:27;2.90;;;1.70;;
950;SDS011;462;48.758;9.256;2022-10-01T11:57:41;4.03;;;1.60;;
950;SDS011;462;48.758;9.256;2022-10-01T12:06:02;1.83;;;0.97;;
950;SDS011;462;48.758;9.256;2022-10-01T12:14:09;1.10;;;0.80;;
950;SDS011;462;48.758;9.256;2022-10-01T12:22:15;1.23;;;1.00;;
950;SDS011;462;48.758;9.256;2022-10-01T12:30:21;1.37;;;1.10;;
950;SDS011;462;48.758;9.256;2022-10-01T12:38:35;0.80;;;0.80;;
950;SDS011;462;48.758;9.256;2022-10-01T12:46:46;0.80;;;0.80;;
950;SDS011;462;48.758;9.256;2022-10-01T12:55:07;2.23;;;0.83;;
950;SDS011;462;48.758;9.256;2022-10-01T13:03:24;1.00;;;1.00;;
950;SDS011;462;48.758;9.256;2022-10-01T13:11:42;1.10;;;1.00;;
950;SDS011;462;48.758;9.256;2022-10-01T13:20:03;2.17;;;1.10;;
950;SDS011;462;48.758;9.256;2022-10-01T13:28:13;1.47;;;1.17;;
950;SDS011;462;48.758;9.256;2022-10-01T13:36:26;0.93;;;0.93;;
950;SDS011;462;48.758;9.256;2022-10-01T13:44:31;6.40;;;5.30;;
950;SDS011;462;48.758;9.256;2022-10-01T13:52:35;4.70;;;2.03;;
950;SDS011;462;48.758;9.256;2022-10-01T14:00:47;6.97;;;3.70;;
950;SDS011;462;48.758;9.256;2022-10-01T14:08:51;1.93;;;1.73;;
950;SDS011;462;48.758;9.256;2022-10-01T14:17:00;3.20;;;1.57;;
950;SDS011;462;48.758;9.256;2022-10-01T14:25:15;1.10;;;1.00;;
950;SDS011;462;48.758;9.256;2022-10-01T14:33:35;0.90;;;0.80;;
950;SDS011;462;48.758;9.256;2022-10-01T14:41:47;3.07;;;1.30;;
950;SDS011;462;48.758;9.256;2022-10-01T14:49:52;2.47;;;0.90;;
950;SDS011;462;48.758;9.256;2022-10-01T14:57:55;0.90;;;0.90;;
950;SDS011;462;48.758;9.256;2022-10-01T15:06:02;3.30;;;1.03;;
950;SDS011;462;48.758;9.256;2022-10-01T15:14:11;1.33;;;1.00;;
950;SDS011;462;48.758;9.256;2022-10-01T15:22:16;1.90;;;1.20;;
950;SDS011;462;48.758;9.256;2022-10-01T15:30:22;4.20;;;3.47;;
950;SDS011;462;48.758;9.256;2022-10-01T15:38:28;1.83;;;1.33;;
950;SDS011;462;48.758;9.256;2022-10-01T15:46:32;1.13;;;1.00;;
950;SDS011;462;48.758;9.256;2022-10-01T15:54:36;0.90;;;0.90;;
950;SDS011;462;48.758;9.256;2022-10-01T16:02:39;1.00;;;0.90;;
950;SDS011;462;48.758;9.256;2022-10-01T16:10:47;1.43;;;1.00;;
950;SDS011;462;48.758;9.256;2022-10-01T16:19:18;1.53;;;1.37;;
950;SDS011;462;48.758;9.256;2022-10-01T16:27:24;4.20;;;1.70;;
950;SDS011;462;48.758;9.256;2022-10-01T16:35:28;1.77;;;1.07;;
950;SDS011;462;48.758;9.256;2022-10-01T16:43:35;1.93;;;1.10;;
950;SDS011;462;48.758;9.256;2022-10-01T16:51:38;3.00;;;2.00;;
950;SDS011;462;48.758;9.256;2022-10-01T16:59:43;1.30;;;1.20;;
950;SDS011;462;48.758;9.256;2022-10-01T17:07:45;2.30;;;1.60;;
950;SDS011;462;48.758;9.256;2022-10-01T17:15:49;2.00;;;1.57;;
950;SDS011;462;48.758;9.256;2022-10-01T17:23:52;9.33;;;4.67;;
950;SDS011;462;48.758;9.256;2022-10-01T17:31:56;9.33;;;4.90;;
950;SDS011;462;48.758;9.256;2022-10-01T17:39:59;5.03;;;3.90;;
950;SDS011;462;48.758;9.256;2022-10-01T17:48:03;3.50;;;2.77;;
950;SDS011;462;48.758;9.256;2022-10-01T17:56:06;2.57;;;2.37;;
950;SDS011;462;48.758;9.256;2022-10-01T18:04:10;1.60;;;1.50;;
950;SDS011;462;48.758;9.256;2022-10-01T18:12:13;3.23;;;2.43;;
950;SDS011;462;48.758;9.256;2022-10-01T18:20:17;1.83;;;1.73;;
950;SDS011;462;48.758;9.256;2022-10-01T18:28:19;2.73;;;2.43;;
950;SDS011;462;48.758;9.256;2022-10-01T18:36:25;1.63;;;1.53;;
950;SDS011;462;48.758;9.256;2022-10-01T18:44:36;2.20;;;1.60;;
950;SDS011;462;48.758;9.256;2022-10-01T18:52:43;2.80;;;1.70;;
950;SDS011;462;48.758;9.256;2022-10-01T19:00:54;2.47;;;1.80;;
950;SDS011;462;48.758;9.256;2022-10-01T19:09:08;4.83;;;2.93;;
950;SDS011;462;48.758;9.256;2022-10-01T19:17:19;2.47;;;1.90;;
950;SDS011;462;48.758;9.256;2022-10-01T19:25:31;2.17;;;1.80;;
950;SDS011;462;48.758;9.256;2022-10-01T19:33:40;2.97;;;2.13;;
950;SDS011;462;48.758;9.256;2022-10-01T19:41:48;2.50;;;2.30;;
950;SDS011;462;48.758;9.256;2022-10-01T19:49:54;4.47;;;3.17;;
950;SDS011;462;48.758;9.256;2022-10-01T19:58:00;6.60;;;4.67;;
950;SDS011;462;48.758;9.256;2022-10-01T20:06:04;3.80;;;3.27;;
950;SDS011;462;48.758;9.256;2022-10-01T20:14:14;3.30;;;2.80;;
950;SDS011;462;48.758;9.256;2022-10-01T20:22:43;4.13;;;2.90;;
950;SDS011;462;48.758;9.256;2022-10-01T20:30:59;5.97;;;3.73;;
950;SDS011;462;48.758;9.256;2022-10-01T20:39:10;3.00;;;2.50;;
950;SDS011;462;48.758;9.256;2022-10-01T20:47:18;8.77;;;2.93;;
950;SDS011;462;48.758;9.256;2022-10-01T20:55:25;4.20;;;2.50;;
950;SDS011;462;48.758;9.256;2022-10-01T21:03:40;7.67;;;2.33;;
950;SDS011;462;48.758;9.256;2022-10-01T21:11:45;3.20;;;2.30;;
950;SDS011;462;48.758;9.256;2022-10-01T21:19:59;4.00;;;2.20;;
950;SDS011;462;48.758;9.256;2022-10-01T21:28:15;4.00;;;2.33;;
950;SDS011;462;48.758;9.256;2022-10-01T21:36:36;7.63;;;3.03;;
950;SDS011;462;48.758;9.256;2022-10-01T21:53:13;2.77;;;2.57;;
950;SDS011;462;48.758;9.256;2022-10-01T22:01:39;3.80;;;2.20;;
950;SDS011;462;48.758;9.256;2022-10-01T22:09:54;9.80;;;2.30;;
950;SDS011;462;48.758;9.256;2022-10-01T22:18:03;5.23;;;2.53;;
950;SDS011;462;48.758;9.256;2022-10-01T22:26:09;7.33;;;2.70;;
950;SDS011;462;48.758;9.256;2022-10-01T22:34:16;4.30;;;2.80;;
950;SDS011;462;48.758;9.256;2022-10-01T22:42:23;4.03;;;2.10;;
950;SDS011;462;48.758;9.256;2022-10-01T22:50:30;3.03;;;2.20;;
950;SDS011;462;48.758;9.256;2022-10-01T22:58:45;3.10;;;2.00;;
950;SDS011;462;48.758;9.256;2022-10-01T23:06:58;3.70;;;1.90;;
950;SDS011;462;48.758;9.256;2022-10-01T23:15:10;3.50;;;2.50;;
950;SDS011;462;48.758;9.256;2022-10-01T23:23:22;4.93;;;2.90;;
950;SDS011;462;48.758;9.256;2022-10-01T23:31:32;2.57;;;2.37;;
950;SDS011;462;48.758;9.256;2022-10-01T23:39:44;5.50;;;2.80;;
950;SDS011;462;48.758;9.256;2022-10-01T23:47:53;6.70;;;3.30;;
950;SDS011;462;48.758;9.256;2022-10-01T23:56:02;6.63;;;3.00;;
